Share

Ambato, Ecuador

Cotopaxi International (SELT) Elev 9137 ft | 0.91 °S, 78.62 °W | Change Station

Current weather conditions updated 36 minutes ago

Mostly Cloudy
Mostly Cloudy
64 °F
Feels Like 64 °F
N
15
Wind Variable Wind from South
Sunrise 6:10 AM
Sunset 6:15 PM
Moon Waning Gibbous

Today is forecast to be nearly the same temperature as yesterday. Cloudy with showers and thunderstorms.

Pressure 30.33 in
Visibility 6.2 miles
Clouds Mostly Cloudy 3000 ft
Dew Point 52 °F
Humidity 64%
Rainfall 0.00 in
Snow Depth Not available.
UV 8 out of 16
Pollen Not available.
Air Quality Not available.
Flu Activity Not available.
METAR SELT 191900Z 17013KT 9999 BKN030 18/11 Q1027

More Conditions Fewer Conditions

Pressure 30.33 in
Visibility 6.2 miles
Clouds Mostly Cloudy 3000 ft
Dew Point 52 °F
Humidity 64%
Rainfall 0.00 in
Snow Depth Not available.
UV 8 out of 16
Pollen Not available.
Air Quality Not available.
Flu Activity Not available.
METAR SELT 191900Z 17013KT 9999 BKN030 18/11 Q1027

More Conditions Fewer Conditions

10-Day Weather Forecast

Almanac

Astronomy

Apr. 19, 2014 Rise Set
Actual Time 6:10 AM ECT 6:15 PM ECT
Civil Twilight 5:49 AM ECT 6:36 PM ECT
Nautical Twilight 5:25 AM ECT 7:01 PM ECT
Astronomical Twilight 5:00 AM ECT 7:25 PM ECT
Moon 10:25 PM ECT 9:58 AM ECT
Length of Visible Light 12h 46m
Length of Day
12h 04m
Tomorrow will be 0m 3s shorter.
Waning Gibbous, 77% of the Moon is Illuminated
Today
Waning Gibbous
Apr 22
Last Quarter
Apr 29
New
May 6
First Quarter
May 14
Full

Today's Extremes

Country Highs Country Lows

Community

  • Piriapolis
    Piriapolis
  • A Glorious Morning
    A Glorious Morning
  • Tender Rays Of Hope
    Tender Rays Of Hope
  • Bleeding Hearts
    Bleeding Hearts
  • Sunset Silhouettes
    Sunset Silhouettes

WunderPhotos

Upload Photos

1,702,861 photos uploaded!

WunderBlogs® & News

Nearby

Snow Depth

Not available.

Coastal Water Temperatures

Place Temperature
No Stations Reporting

Earthquake Activity

City Distance Mag. Time & Date
No recent earthquake activity has been reported nearby.
Minimum magnitude displayed is 2.5.

Nearby Weather Stations

There are no personal weather stations in this area.

What do you think?

We're not finished. Please let us know what you like, what you don't like, and what you are still missing.